Heydar Aliyev — 9HFS7 — position and weather

sailwx.info

Track history (hours):
 
Tides and Currents Weather Stations Pressure Air Temp Water Temp Dewpoint Dewpoint Depression Visibility Wind Speed Wind Dir Waves Ship Positions

Heydar Aliyev

Last reported at 2016-Aug-25 10:31 UTC. Time now 2016-Aug-25 11:33 UTC.
Position N 43°24' E 004°53'.

Length 274 m; draft 13.8 m.

Type: Tanker. MMSI: 215213000.

Date/timePositionNaut miles runAvg speedWind from/ knotsBaromVisibWave heightAir tempDewpointWater temp
2016-Aug-25 10:31N 43°24' E 004°53'0 0.0
2016-Aug-25 09:31N 43°24' E 004°53'0 0.0
2016-Aug-25 08:25N 43°24' E 004°53'0 0.0
2016-Aug-25 07:31N 43°24' E 004°53'0 0.0
2016-Aug-25 06:31N 43°24' E 004°53'0 0.0
2016-Aug-25 04:31N 43°24' E 004°53'0 0.0
2016-Aug-25 03:31N 43°24' E 004°53'0 0.0
2016-Aug-25 02:31N 43°24' E 004°53'0 0.0
2016-Aug-25 01:31N 43°24' E 004°53'0 0.0
2016-Aug-25 00:25N 43°24' E 004°53'0 0.0
2016-Aug-24 23:31N 43°24' E 004°53'0 0.0
2016-Aug-24 22:31N 43°24' E 004°53'0 0.0
2016-Aug-24 21:31N 43°24' E 004°53'0 0.0
2016-Aug-24 20:31N 43°24' E 004°53'0 0.0
2016-Aug-24 19:31N 43°24' E 004°53'0 0.0
2016-Aug-24 18:31N 43°24' E 004°53'0 0.0
2016-Aug-24 17:31N 43°24' E 004°53'0 0.0
2016-Aug-24 16:31N 43°24' E 004°53'0 0.0
2016-Aug-24 14:19N 43°24' E 004°53'0 0.0
2016-Aug-24 13:25N 43°24' E 004°53'0 0.0
2016-Aug-24 12:31N 43°24' E 004°53'0 0.0
2016-Aug-24 11:31N 43°24' E 004°53'0 0.0
2016-Aug-24 10:31N 43°24' E 004°53'0 0.0
2016-Aug-24 09:28N 43°24' E 004°53'3 3.0
2016-Aug-24 08:34N 43°23' E 004°57'9 8.8
2016-Aug-24 07:34N 43°15' E 005°01'9 8.8
2016-Aug-24 06:34N 43°06' E 004°58'2512.3
2016-Aug-24 04:33N 42°45' E 004°41'1212.4
2016-Aug-24 03:33N 42°35' E 004°32'1212.3
2016-Aug-24 02:33N 42°24' E 004°24'1212.5
2016-Aug-24 01:33N 42°14' E 004°15'1312.5
2016-Aug-24 00:32N 42°03' E 004°06'1212.3
2016-Aug-23 23:34N 41°52' E 003°58'1212.2
2016-Aug-23 22:34N 41°42' E 003°50'1312.6
2016-Aug-23 21:33N 41°31' E 003°41'1212.4
2016-Aug-23 20:33N 41°21' E 003°31'1212.2
2016-Aug-23 19:33N 41°12' E 003°19'1211.8
2016-Aug-23 18:33N 41°03' E 003°09'1212.1
2016-Aug-23 17:33N 40°54' E 002°58'1212.1
2016-Aug-23 16:33N 40°45' E 002°48'1312.6
2016-Aug-23 15:33N 40°36' E 002°37'1212.4
2016-Aug-23 14:33N 40°26' E 002°26'1212.5
2016-Aug-23 13:33N 40°17' E 002°16'1312.9
2016-Aug-23 12:33N 40°07' E 002°05'1313.1
2016-Aug-23 11:33N 39°58' E 001°53'1313.0
2016-Aug-23 10:33N 39°48' E 001°42'2512.8
2016-Aug-23 08:34N 39°28' E 001°20'1312.4
2016-Aug-23 07:29N 39°18' E 001°09'1712.5
2016-Aug-23 06:10N 39°06' E 000°55'6312.7
2016-Aug-23 01:10N 38°16' E 000°06'2213.2
2016-Aug-22 23:30N 37°57' W 000°10'1513.0
2016-Aug-22 22:21N 37°45' W 000°21'1012.9
2016-Aug-22 21:33N 37°37' W 000°28'1312.5
2016-Aug-22 20:32N 37°27' W 000°39'1512.8
2016-Aug-22 19:21N 37°17' W 000°53'912.1
2016-Aug-22 18:34N 37°11' W 001°02'1311.8
2016-Aug-22 17:28N 37°02' W 001°14'2612.0
2016-Aug-22 15:16N 36°45' W 001°39'4811.5
2016-Aug-22 11:04N 36°20' W 002°31'711.9
2016-Aug-22 10:31N 36°19' W 002°39'10612.8
2016-Aug-22 02:16N 36°07' W 004°49'1012.4
2016-Aug-22 01:29N 36°07' W 005°01'1111.7
2016-Aug-22 00:33N 36°07' W 005°14'1 1.1
2016-Aug-21 23:33N 36°07' W 005°16'1 0.5
2016-Aug-21 22:33N 36°08' W 005°15'6 6.1
2016-Aug-21 21:33N 36°02' W 005°16'1713.6
2016-Aug-21 20:19N 35°55' W 005°35'1114.3
2016-Aug-21 19:33N 35°54' W 005°49'5911.7
2016-Aug-21 14:32N 35°27' W 006°53'1312.8
2016-Aug-21 13:33N 35°19' W 007°04'1312.7
2016-Aug-21 12:32N 35°10' W 007°16'1312.5
2016-Aug-21 11:28N 34°60' W 007°27'8712.5
2016-Aug-21 04:30N 34°02' W 008°46'2412.1
2016-Aug-21 02:31N 33°46' W 009°07'1511.6
2016-Aug-21 01:13N 33°36' W 009°20'1911.5
2016-Aug-20 23:33N 33°23' W 009°37'15311.6
2016-Aug-20 10:21N 31°19' W 011°24'14312.0
2016-Aug-19 22:26N 29°16' W 012°51'1411.9
2016-Aug-19 21:17N 29°05' W 012°59'911.9
2016-Aug-19 20:33N 28°57' W 013°04'2711.6
2016-Aug-19 18:14N 28°34' W 013°20'4712.3
2016-Aug-19 14:23N 27°53' W 013°47'1112.9
2016-Aug-19 13:32N 27°44' W 013°54'1512.4
2016-Aug-19 12:19N 27°32' W 014°04'1012.8
2016-Aug-19 11:33N 27°26' W 014°13'1312.9
2016-Aug-19 10:33N 27°19' W 014°25'1313.2
2016-Aug-19 09:33N 27°11' W 014°37'1513.0
2016-Aug-19 08:25N 27°03' W 014°51'  
Track history (hours):
 
Tides and Currents Weather Stations Pressure Air Temp Water Temp Dewpoint Dewpoint Depression Visibility Wind Speed Wind Dir Waves Ship Positions

Heydar Aliyev

Last reported at 2016-Aug-25 10:31 UTC. Time now 2016-Aug-25 11:33 UTC.
Position N 43°24' E 004°53'.

Length 274 m; draft 13.8 m.

Type: Tanker. MMSI: 215213000.

Date/timePositionNaut miles runAvg speedWind from/ knotsBaromVisibWave heightAir tempDewpointWater temp
2016-Aug-25 10:31N 43°24' E 004°53'0 0.0
2016-Aug-25 09:31N 43°24' E 004°53'0 0.0
2016-Aug-25 08:25N 43°24' E 004°53'0 0.0
2016-Aug-25 07:31N 43°24' E 004°53'0 0.0
2016-Aug-25 06:31N 43°24' E 004°53'0 0.0
2016-Aug-25 04:31N 43°24' E 004°53'0 0.0
2016-Aug-25 03:31N 43°24' E 004°53'0 0.0
2016-Aug-25 02:31N 43°24' E 004°53'0 0.0
2016-Aug-25 01:31N 43°24' E 004°53'0 0.0
2016-Aug-25 00:25N 43°24' E 004°53'0 0.0
2016-Aug-24 23:31N 43°24' E 004°53'0 0.0
2016-Aug-24 22:31N 43°24' E 004°53'0 0.0
2016-Aug-24 21:31N 43°24' E 004°53'0 0.0
2016-Aug-24 20:31N 43°24' E 004°53'0 0.0
2016-Aug-24 19:31N 43°24' E 004°53'0 0.0
2016-Aug-24 18:31N 43°24' E 004°53'0 0.0
2016-Aug-24 17:31N 43°24' E 004°53'0 0.0
2016-Aug-24 16:31N 43°24' E 004°53'0 0.0
2016-Aug-24 14:19N 43°24' E 004°53'0 0.0
2016-Aug-24 13:25N 43°24' E 004°53'0 0.0
2016-Aug-24 12:31N 43°24' E 004°53'0 0.0
2016-Aug-24 11:31N 43°24' E 004°53'0 0.0
2016-Aug-24 10:31N 43°24' E 004°53'0 0.0
2016-Aug-24 09:28N 43°24' E 004°53'3 3.0
2016-Aug-24 08:34N 43°23' E 004°57'9 8.8
2016-Aug-24 07:34N 43°15' E 005°01'9 8.8
2016-Aug-24 06:34N 43°06' E 004°58'2512.3
2016-Aug-24 04:33N 42°45' E 004°41'1212.4
2016-Aug-24 03:33N 42°35' E 004°32'1212.3
2016-Aug-24 02:33N 42°24' E 004°24'1212.5
2016-Aug-24 01:33N 42°14' E 004°15'1312.5
2016-Aug-24 00:32N 42°03' E 004°06'1212.3
2016-Aug-23 23:34N 41°52' E 003°58'1212.2
2016-Aug-23 22:34N 41°42' E 003°50'1312.6
2016-Aug-23 21:33N 41°31' E 003°41'1212.4
2016-Aug-23 20:33N 41°21' E 003°31'1212.2
2016-Aug-23 19:33N 41°12' E 003°19'1211.8
2016-Aug-23 18:33N 41°03' E 003°09'1212.1
2016-Aug-23 17:33N 40°54' E 002°58'1212.1
2016-Aug-23 16:33N 40°45' E 002°48'1312.6
2016-Aug-23 15:33N 40°36' E 002°37'1212.4
2016-Aug-23 14:33N 40°26' E 002°26'1212.5
2016-Aug-23 13:33N 40°17' E 002°16'1312.9
2016-Aug-23 12:33N 40°07' E 002°05'1313.1
2016-Aug-23 11:33N 39°58' E 001°53'1313.0
2016-Aug-23 10:33N 39°48' E 001°42'2512.8
2016-Aug-23 08:34N 39°28' E 001°20'1312.4
2016-Aug-23 07:29N 39°18' E 001°09'1712.5
2016-Aug-23 06:10N 39°06' E 000°55'6312.7
2016-Aug-23 01:10N 38°16' E 000°06'2213.2
2016-Aug-22 23:30N 37°57' W 000°10'1513.0
2016-Aug-22 22:21N 37°45' W 000°21'1012.9
2016-Aug-22 21:33N 37°37' W 000°28'1312.5
2016-Aug-22 20:32N 37°27' W 000°39'1512.8
2016-Aug-22 19:21N 37°17' W 000°53'912.1
2016-Aug-22 18:34N 37°11' W 001°02'1311.8
2016-Aug-22 17:28N 37°02' W 001°14'2612.0
2016-Aug-22 15:16N 36°45' W 001°39'4811.5
2016-Aug-22 11:04N 36°20' W 002°31'711.9
2016-Aug-22 10:31N 36°19' W 002°39'10612.8
2016-Aug-22 02:16N 36°07' W 004°49'1012.4
2016-Aug-22 01:29N 36°07' W 005°01'1111.7
2016-Aug-22 00:33N 36°07' W 005°14'1 1.1
2016-Aug-21 23:33N 36°07' W 005°16'1 0.5
2016-Aug-21 22:33N 36°08' W 005°15'6 6.1
2016-Aug-21 21:33N 36°02' W 005°16'1713.6
2016-Aug-21 20:19N 35°55' W 005°35'1114.3
2016-Aug-21 19:33N 35°54' W 005°49'5911.7
2016-Aug-21 14:32N 35°27' W 006°53'1312.8
2016-Aug-21 13:33N 35°19' W 007°04'1312.7
2016-Aug-21 12:32N 35°10' W 007°16'1312.5
2016-Aug-21 11:28N 34°60' W 007°27'8712.5
2016-Aug-21 04:30N 34°02' W 008°46'2412.1
2016-Aug-21 02:31N 33°46' W 009°07'1511.6
2016-Aug-21 01:13N 33°36' W 009°20'1911.5
2016-Aug-20 23:33N 33°23' W 009°37'15311.6
2016-Aug-20 10:21N 31°19' W 011°24'14312.0
2016-Aug-19 22:26N 29°16' W 012°51'1411.9
2016-Aug-19 21:17N 29°05' W 012°59'911.9
2016-Aug-19 20:33N 28°57' W 013°04'2711.6
2016-Aug-19 18:14N 28°34' W 013°20'4712.3
2016-Aug-19 14:23N 27°53' W 013°47'1112.9
2016-Aug-19 13:32N 27°44' W 013°54'1512.4
2016-Aug-19 12:19N 27°32' W 014°04'1012.8
2016-Aug-19 11:33N 27°26' W 014°13'1312.9
2016-Aug-19 10:33N 27°19' W 014°25'1313.2
2016-Aug-19 09:33N 27°11' W 014°37'1513.0
2016-Aug-19 08:25N 27°03' W 014°51'  

Dump ship's entire track history